Time;durP1;ratioP1;P1;durP2;ratioP2;P2;SDS_P1;SDS_P2;PMS_P1;PMS_P2;Temp;Humidity;BMP_temperature;BMP_pressure;BME280_temperature;BME280_humidity;BME280_pressure;Samples;Min_cycle;Max_cycle;Signal;HPM_P1;HPM_P2
2022/01/17 00:01:54;;;;;;;12.98;4.33;;;;;;;0.60;100.00;101124.87;1668041;84;21618;-91
2022/01/17 00:04:20;;;;;;;14.83;4.75;;;;;;;0.60;100.00;101120.90;1668224;84;21082;-91
2022/01/17 00:06:47;;;;;;;12.23;3.72;;;;;;;0.58;100.00;101123.41;1667587;86;21058;-89
2022/01/17 00:09:14;;;;;;;15.00;3.87;;;;;;;0.58;100.00;101118.11;1667525;86;21133;-89
2022/01/17 00:11:43;;;;;;;13.45;3.98;;;;;;;0.58;100.00;101118.11;1688382;80;21013;-90
2022/01/17 00:14:12;;;;;;;14.58;4.25;;;;;;;0.60;100.00;101108.15;1777384;80;21052;-91
2022/01/17 00:16:42;;;;;;;11.25;3.83;;;;;;;0.59;100.00;101107.81;1773438;80;20943;-89
2022/01/17 00:19:36;;;;;;;14.35;3.27;;;;;;;0.58;100.00;101100.87;1773859;80;20974;-89
2022/01/17 00:21:46;;;;;;;12.15;3.75;;;;;;;0.58;100.00;101100.87;1773468;80;21036;-90
2022/01/17 00:24:13;;;;;;;14.60;4.17;;;;;;;0.60;100.00;101097.54;1777532;80;20909;-90
2022/01/17 00:26:39;;;;;;;12.60;3.60;;;;;;;0.57;100.00;101096.08;1777474;80;21584;-90
2022/01/17 00:29:05;;;;;;;15.20;4.53;;;;;;;0.59;100.00;101093.22;1786499;79;20913;-91
2022/01/17 00:31:31;;;;;;;11.80;3.35;;;;;;;0.59;100.00;101098.05;1786912;79;21131;-92
2022/01/17 00:33:57;;;;;;;10.25;3.22;;;;;;;0.57;100.00;101094.75;1786652;79;20976;-92
2022/01/17 00:36:23;;;;;;;12.18;3.50;;;;;;;0.57;100.00;101092.60;1786842;79;21619;-91
2022/01/17 00:38:49;;;;;;;10.38;3.10;;;;;;;0.57;100.00;101087.30;1786679;79;21063;-90
2022/01/17 00:41:15;;;;;;;12.63;3.62;;;;;;;0.56;100.00;101082.50;1760172;79;21659;-90
2022/01/17 00:43:41;;;;;;;12.07;3.65;;;;;;;0.57;100.00;101076.69;1787121;79;21084;-90
2022/01/17 00:46:09;;;;;;;8.85;3.22;;;;;;;0.57;100.00;101070.87;1786834;79;20901;-90
2022/01/17 00:48:35;;;;;;;13.85;3.25;;;;;;;0.57;100.00;101066.09;1782595;79;21172;-89
2022/01/17 00:51:01;;;;;;;15.88;3.77;;;;;;;0.56;100.00;101059.96;1760348;79;21049;-90
2022/01/17 00:53:27;;;;;;;18.37;4.33;;;;;;;0.59;100.00;101064.05;1786885;79;21706;-89
2022/01/17 00:55:56;;;;;;;14.23;4.03;;;;;;;0.59;100.00;101060.08;1786969;79;21200;-90
2022/01/17 00:58:22;;;;;;;11.57;3.62;;;;;;;0.60;100.00;101053.28;1679760;84;21099;-89
2022/01/17 01:00:48;;;;;;;12.63;3.55;;;;;;;0.56;100.00;101049.36;1679074;84;21132;-89
2022/01/17 01:03:14;;;;;;;16.07;3.95;;;;;;;0.55;100.00;101050.34;1679330;84;21077;-91
2022/01/17 01:05:40;;;;;;;10.55;3.35;;;;;;;0.55;100.00;101050.34;1679375;84;21001;-90
2022/01/17 01:08:06;;;;;;;11.95;3.22;;;;;;;0.54;100.00;101047.89;1679519;84;21117;-89
2022/01/17 01:10:33;;;;;;;11.97;3.42;;;;;;;0.53;100.00;101047.55;1656346;85;21106;-89
2022/01/17 01:12:59;;;;;;;11.10;3.30;;;;;;;0.52;100.00;101036.13;1679510;84;21073;-91
2022/01/17 01:18:29;;;;;;;11.12;3.83;;;;;;;0.54;100.00;101045.23;1679048;84;21100;-89
2022/01/17 01:28:29;;;;;;;9.60;3.10;;;;;;;0.45;100.00;101014.83;1701981;83;21058;-88
2022/01/17 01:30:57;;;;;;;8.48;3.30;;;;;;;0.44;100.00;101017.65;1682869;85;21083;-90
2022/01/17 01:33:32;;;;;;;9.05;3.22;;;;;;;0.42;100.00;101015.70;1682786;85;21117;-90
2022/01/17 01:36:07;;;;;;;9.88;3.50;;;;;;;0.42;100.00;101009.89;1682829;84;21040;-91
2022/01/17 01:38:26;;;;;;;12.70;3.70;;;;;;;0.42;100.00;101015.20;1679440;85;21769;-89
2022/01/17 01:40:53;;;;;;;9.50;3.75;;;;;;;0.44;100.00;101009.22;1684047;84;21477;-90
2022/01/17 01:43:19;;;;;;;11.28;4.22;;;;;;;0.42;100.00;101009.89;1683895;84;21152;-90
2022/01/17 01:45:56;;;;;;;13.22;4.20;;;;;;;0.41;100.00;101002.95;1683114;85;21133;-91
2022/01/17 01:48:19;;;;;;;15.60;5.17;;;;;;;0.40;100.00;100991.20;1682947;83;21040;-89
2022/01/17 01:50:46;;;;;;;20.23;5.12;;;;;;;0.39;100.00;100987.73;1683165;85;21060;-92
2022/01/17 01:53:12;;;;;;;15.28;4.78;;;;;;;0.40;100.00;100977.94;1683156;84;21155;-90
2022/01/17 01:55:38;;;;;;;18.82;6.47;;;;;;;0.39;100.00;100978.45;1683124;84;20964;-91
2022/01/17 01:58:04;;;;;;;15.28;4.95;;;;;;;0.39;100.00;100971.83;1659798;85;21648;-91
2022/01/17 02:00:31;;;;;;;15.08;4.72;;;;;;;0.38;100.00;100960.91;1682976;84;21102;-92
2022/01/17 02:02:56;;;;;;;17.87;4.95;;;;;;;0.37;100.00;100964.55;1711598;80;21535;-91
2022/01/17 02:05:23;;;;;;;12.50;4.60;;;;;;;0.37;100.00;100960.58;1789176;80;20856;-92
2022/01/17 02:07:49;;;;;;;15.98;5.20;;;;;;;0.37;100.00;100961.08;1778181;80;21048;-90
2022/01/17 02:10:15;;;;;;;10.10;4.65;;;;;;;0.37;100.00;100959.75;1778229;80;21800;-91
2022/01/17 02:12:42;;;;;;;14.58;4.67;;;;;;;0.35;100.00;100963.90;1778006;80;21364;-90
2022/01/17 02:15:15;;;;;;;16.57;5.17;;;;;;;0.34;100.00;100954.31;1747917;80;21081;-91
2022/01/17 02:17:52;;;;;;;14.05;4.95;;;;;;;0.35;100.00;100952.48;1778290;80;21128;-88
2022/01/17 02:20:20;;;;;;;15.70;5.67;;;;;;;0.34;100.00;100946.36;1773288;80;20945;-90
2022/01/17 02:22:46;;;;;;;15.83;5.15;;;;;;;0.34;100.00;100950.34;1777695;80;21565;-89
2022/01/17 02:25:12;;;;;;;11.48;4.72;;;;;;;0.33;100.00;100946.56;1778030;80;21103;-90
2022/01/17 02:27:38;;;;;;;15.05;4.83;;;;;;;0.33;100.00;100943.41;1778168;79;20878;-90
2022/01/17 02:30:06;;;;;;;10.85;4.65;;;;;;;0.31;100.00;100949.38;1788863;78;20941;-90
2022/01/17 02:32:33;;;;;;;12.55;5.00;;;;;;;0.30;100.00;100945.61;1763538;80;21066;-92
2022/01/17 02:35:15;;;;;;;12.90;5.15;;;;;;;0.28;100.00;100934.36;1774788;80;21186;-90
2022/01/17 02:37:41;;;;;;;12.25;5.15;;;;;;;0.29;100.00;100935.98;1774901;80;21123;-90
2022/01/17 02:40:09;;;;;;;13.08;5.00;;;;;;;0.29;100.00;100934.66;1775156;80;21553;-90
2022/01/17 02:42:36;;;;;;;14.10;5.40;;;;;;;0.27;100.00;100924.77;1775100;80;21024;-90
2022/01/17 02:45:19;;;;;;;20.88;5.67;;;;;;;0.25;100.00;100921.47;1775073;80;21587;-91
2022/01/17 02:47:37;;;;;;;13.22;5.45;;;;;;;0.26;100.00;100918.63;1770881;80;21045;-91
2022/01/17 02:50:04;;;;;;;14.43;5.20;;;;;;;0.23;100.00;100911.86;1775054;80;21126;-92
2022/01/17 02:52:30;;;;;;;14.70;5.75;;;;;;;0.21;100.00;100917.86;1775156;80;21002;-89
2022/01/17 02:54:56;;;;;;;18.02;6.10;;;;;;;0.20;100.00;100906.92;1775186;80;22104;-89
2022/01/17 02:57:24;;;;;;;14.53;5.50;;;;;;;0.19;100.00;100906.62;1775314;80;20878;-90
2022/01/17 02:59:49;;;;;;;14.95;5.37;;;;;;;0.19;100.00;100907.94;1774718;80;21034;-89
2022/01/17 03:02:15;;;;;;;19.40;5.50;;;;;;;0.19;100.00;100896.52;1775130;80;20874;-91
2022/01/17 03:04:41;;;;;;;18.35;6.30;;;;;;;0.18;100.00;100895.71;1775108;80;20898;-89
2022/01/17 03:07:07;;;;;;;13.93;5.37;;;;;;;0.18;100.00;100898.87;1775590;80;21020;-90
2022/01/17 03:09:42;;;;;;;18.62;6.20;;;;;;;0.19;100.00;100893.88;1775538;80;20902;-89
2022/01/17 03:12:01;;;;;;;19.00;6.17;;;;;;;0.18;100.00;100893.57;1771072;80;21036;-90
2022/01/17 03:14:27;;;;;;;20.50;6.67;;;;;;;0.16;100.00;100884.46;1775507;80;20930;-90
2022/01/17 03:16:55;;;;;;;18.00;7.15;;;;;;;0.17;100.00;100883.45;1775373;80;20890;-90
2022/01/17 03:19:21;;;;;;;20.75;7.50;;;;;;;0.17;100.00;100883.45;1770777;80;21108;-89
2022/01/17 03:21:47;;;;;;;19.12;7.42;;;;;;;0.16;100.00;100879.16;1775485;80;20886;-90
2022/01/17 03:24:13;;;;;;;27.13;9.33;;;;;;;0.16;100.00;100882.32;1775180;80;21077;-90
2022/01/17 03:26:39;;;;;;;25.20;9.78;;;;;;;0.15;100.00;100888.13;1775305;80;20850;-90
2022/01/17 03:29:05;;;;;;;29.02;11.40;;;;;;;0.13;100.00;100878.20;1774831;80;21091;-91
2022/01/17 03:31:31;;;;;;;37.53;11.85;;;;;;;0.11;100.00;100880.72;1773469;80;20986;-91
2022/01/17 03:33:57;;;;;;;35.48;12.43;;;;;;;0.11;100.00;100879.39;1772416;81;21068;-91
2022/01/17 03:36:23;;;;;;;30.85;11.08;;;;;;;0.11;100.00;100877.56;1743872;81;21570;-90
2022/01/17 03:38:50;;;;;;;35.45;12.65;;;;;;;0.13;100.00;100882.18;1772433;81;20985;-91
2022/01/17 03:41:16;;;;;;;28.50;10.15;;;;;;;0.12;100.00;100887.17;1771846;81;21036;-91
2022/01/17 03:43:42;;;;;;;32.30;10.68;;;;;;;0.07;100.00;100882.11;1772188;80;20935;-92
2022/01/17 03:46:08;;;;;;;32.35;12.00;;;;;;;0.07;100.00;100876.80;1772028;80;20870;-90
2022/01/17 03:48:34;;;;;;;30.88;10.93;;;;;;;0.07;100.00;100880.78;1772383;80;21853;-90
2022/01/17 03:51:02;;;;;;;31.60;11.53;;;;;;;0.07;100.00;100884.75;1772457;81;21126;-90
2022/01/17 03:53:29;;;;;;;29.87;10.85;;;;;;;0.07;100.00;100878.95;1767394;81;21535;-91
2022/01/17 03:55:56;;;;;;;36.98;11.20;;;;;;;0.06;100.00;100872.48;1772318;80;21001;-91
2022/01/17 03:58:26;;;;;;;40.92;11.20;;;;;;;0.05;100.00;100866.89;1772163;81;20950;-91
2022/01/17 04:00:55;;;;;;;30.92;11.25;;;;;;;0.03;100.00;100867.08;1743871;81;21458;-90
2022/01/17 04:03:21;;;;;;;29.77;10.03;;;;;;;0.02;100.00;100860.63;1757949;80;21486;-92
2022/01/17 04:05:47;;;;;;;30.50;10.75;;;;;;;0.01;100.00;100849.73;1778102;80;21002;-91
2022/01/17 04:08:13;;;;;;;30.02;10.60;;;;;;;-0.01;100.00;100847.24;1778499;80;20901;-90
2022/01/17 04:10:40;;;;;;;28.32;10.50;;;;;;;-0.04;100.00;100842.31;1777935;80;21564;-91
2022/01/17 04:13:08;;;;;;;27.20;10.10;;;;;;;-0.06;100.00;100841.67;1778137;80;21076;-91
2022/01/17 04:15:35;;;;;;;28.77;9.43;;;;;;;-0.08;100.00;100845.03;1777702;80;21064;-90
2022/01/17 04:18:04;;;;;;;23.27;8.93;;;;;;;-0.12;100.00;100847.23;1778295;79;21001;-91
2022/01/17 04:20:30;;;;;;;23.83;9.05;;;;;;;-0.13;100.00;100838.94;1778166;80;21077;-90
2022/01/17 04:23:02;;;;;;;22.80;9.60;;;;;;;-0.15;100.00;100839.62;1777806;80;21001;-90
2022/01/17 04:25:30;;;;;;;22.17;8.13;;;;;;;-0.13;100.00;100836.80;1778086;80;21037;-93
2022/01/17 04:28:01;;;;;;;24.32;8.40;;;;;;;-0.16;100.00;100841.14;1778264;80;21033;-92
2022/01/17 04:30:28;;;;;;;22.45;7.70;;;;;;;-0.18;100.00;100833.36;1778265;80;21569;-92
2022/01/17 04:32:56;;;;;;;17.52;6.80;;;;;;;-0.18;100.00;100831.22;1778360;80;20994;-91
2022/01/17 04:35:25;;;;;;;22.98;6.62;;;;;;;-0.20;100.00;100823.48;1778291;80;21043;-91
2022/01/17 04:37:56;;;;;;;19.82;6.55;;;;;;;-0.24;100.00;100818.20;1778333;80;21195;-92
2022/01/17 04:40:22;;;;;;;15.25;5.95;;;;;;;-0.28;100.00;100819.08;1778018;80;21021;-92
2022/01/17 04:42:52;;;;;;;20.37;6.35;;;;;;;-0.33;100.00;100808.21;1778405;79;21509;-92
2022/01/17 04:45:19;;;;;;;15.70;5.75;;;;;;;-0.38;100.00;100800.50;1777559;80;21100;-92
2022/01/17 04:47:49;;;;;;;18.42;5.75;;;;;;;-0.43;100.00;100793.63;1748003;80;21060;-93
2022/01/17 04:50:35;;;;;;;19.73;5.62;;;;;;;-0.49;100.00;100790.70;1731198;82;21149;-93
2022/01/17 04:53:00;;;;;;;15.20;5.78;;;;;;;-0.54;100.00;100794.89;1663530;85;21120;-93
2022/01/17 04:55:26;;;;;;;16.27;5.37;;;;;;;-0.58;100.00;100783.04;1664562;85;21098;-91
2022/01/17 04:57:55;;;;;;;17.05;5.90;;;;;;;-0.63;100.00;100780.11;1665338;85;21089;-93
2022/01/17 05:00:23;;;;;;;15.03;5.53;;;;;;;-0.67;100.00;100774.88;1664897;85;21508;-91
2022/01/17 05:02:50;;;;;;;18.87;6.70;;;;;;;-0.73;100.00;100771.94;1664919;85;21843;-90
2022/01/17 05:05:17;;;;;;;15.00;5.62;;;;;;;-0.80;100.00;100774.16;1664781;85;21114;-90
2022/01/17 05:07:43;;;;;;;17.90;6.37;;;;;;;-0.90;100.00;100769.13;1664868;85;21097;-90
2022/01/17 05:10:13;;;;;;;16.40;6.17;;;;;;;-0.98;100.00;100762.09;1665165;85;21081;-89
2022/01/17 05:12:40;;;;;;;25.27;6.53;;;;;;;-1.04;100.00;100764.12;1665075;85;21631;-89
2022/01/17 05:17:43;;;;;;;20.57;7.25;;;;;;;-1.16;100.00;100747.05;1639951;86;21113;-90
2022/01/17 05:20:07;;;;;;;15.98;6.60;;;;;;;-1.21;100.00;100738.83;1639940;87;21007;-91
2022/01/17 05:22:35;;;;;;;21.62;6.67;;;;;;;-1.26;100.00;100742.03;1641109;86;21134;-90
2022/01/17 05:25:09;;;;;;;15.40;6.50;;;;;;;-1.27;100.00;100736.91;1674186;84;21070;-90
2022/01/17 05:27:36;;;;;;;20.90;7.03;;;;;;;-1.30;100.00;100730.66;1676177;84;21279;-90
2022/01/17 05:30:14;;;;;;;20.40;6.72;;;;;;;-1.31;100.00;100726.38;1688272;84;21139;-90
2022/01/17 05:32:41;;;;;;;16.12;5.97;;;;;;;-1.33;100.00;100712.51;1679170;84;21246;-91
2022/01/17 05:35:08;;;;;;;16.57;6.85;;;;;;;-1.35;100.00;100711.86;1679120;84;21094;-90
2022/01/17 05:37:36;;;;;;;19.85;7.28;;;;;;;-1.39;100.00;100708.76;1671698;84;21087;-92
2022/01/17 05:40:03;;;;;;;17.17;7.00;;;;;;;-1.38;100.00;100711.23;1657417;85;21111;-91
2022/01/17 05:42:30;;;;;;;22.98;8.28;;;;;;;-1.32;100.00;100704.89;1679530;84;21124;-89
2022/01/17 05:44:56;;;;;;;19.45;8.30;;;;;;;-1.26;100.00;100709.48;1678371;84;22246;-91
2022/01/17 05:47:22;;;;;;;20.90;9.25;;;;;;;-1.17;100.00;100705.77;1692810;81;20967;-91
2022/01/17 05:49:48;;;;;;;23.83;9.40;;;;;;;-1.08;100.00;100707.83;1667384;83;21022;-90
2022/01/17 05:52:15;;;;;;;19.35;8.58;;;;;;;-0.97;100.00;100703.39;1659354;86;21070;-90
2022/01/17 05:54:43;;;;;;;23.30;8.53;;;;;;;-0.88;100.00;100697.52;1688772;84;20930;-90
2022/01/17 05:57:10;;;;;;;20.77;8.65;;;;;;;-0.73;100.00;100694.39;1688977;84;21149;-89
2022/01/17 05:59:36;;;;;;;19.07;8.25;;;;;;;-0.56;100.00;100696.31;1689066;84;21276;-90
2022/01/17 06:02:03;;;;;;;21.85;8.80;;;;;;;-0.42;100.00;100690.19;1689333;84;21072;-90
2022/01/17 06:04:31;;;;;;;22.10;7.62;;;;;;;-0.30;100.00;100680.75;1688878;84;21204;-90
2022/01/17 06:06:57;;;;;;;18.90;7.50;;;;;;;-0.04;100.00;100681.55;1707656;82;21058;-91
2022/01/17 06:09:23;;;;;;;19.57;7.42;;;;;;;0.21;100.00;100676.72;1717495;82;21042;-90
2022/01/17 06:11:52;;;;;;;18.45;7.87;;;;;;;0.41;100.00;100680.03;1691768;82;20997;-90
2022/01/17 06:14:18;;;;;;;19.80;7.85;;;;;;;0.65;100.00;100669.55;1751649;80;22020;-89
2022/01/17 06:16:46;;;;;;;19.23;7.55;;;;;;;0.88;100.00;100664.81;1804312;79;21103;-90
2022/01/17 06:19:13;;;;;;;28.55;10.45;;;;;;;1.21;100.00;100661.52;1790840;80;20998;-89
2022/01/17 06:21:40;;;;;;;20.05;8.88;;;;;;;1.55;100.00;100655.83;1804579;79;21460;-89
2022/01/17 06:24:09;;;;;;;24.15;8.65;;;;;;;1.76;100.00;100653.03;1790980;80;21085;-89
2022/01/17 06:26:39;;;;;;;24.25;10.10;;;;;;;1.67;100.00;100651.58;1778168;79;38216;-91
2022/01/17 06:29:10;;;;;;;25.30;9.93;;;;;;;1.71;100.00;100649.36;1727886;82;21533;-91
2022/01/17 06:31:39;;;;;;;21.23;8.55;;;;;;;1.95;100.00;100647.47;1696795;83;21537;-90
2022/01/17 06:34:07;;;;;;;18.75;8.45;;;;;;;2.18;100.00;100647.09;1675395;85;21125;-90
2022/01/17 06:36:36;;;;;;;23.40;8.95;;;;;;;2.70;100.00;100637.45;1638265;87;21128;-91
2022/01/17 06:39:07;;;;;;;21.50;8.00;;;;;;;3.30;100.00;100624.52;1613945;88;21151;-91
2022/01/17 06:41:32;;;;;;;23.35;8.03;;;;;;;4.14;100.00;100618.60;1641895;87;21053;-90
2022/01/17 06:43:59;;;;;;;18.07;8.18;;;;;;;4.19;98.21;100607.59;1636261;87;21050;-90
2022/01/17 06:46:26;;;;;;;18.82;8.50;;;;;;;3.72;94.58;100597.77;1641973;87;21505;-89
2022/01/17 06:48:57;;;;;;;20.02;8.25;;;;;;;3.35;98.09;100592.73;1642134;87;21633;-90
2022/01/17 06:51:23;;;;;;;19.07;7.95;;;;;;;2.89;98.20;100575.10;1641711;87;21072;-91
2022/01/17 06:53:50;;;;;;;25.75;8.95;;;;;;;2.52;100.00;100558.00;1635616;86;21132;-92
2022/01/17 06:56:16;;;;;;;20.88;9.03;;;;;;;2.53;100.00;100549.82;1622668;87;21113;-87
2022/01/17 06:58:44;;;;;;;17.32;8.05;;;;;;;4.16;100.00;100533.34;1655097;86;21627;-87
2022/01/17 07:01:11;;;;;;;15.70;7.33;;;;;;;5.87;100.00;100526.08;1655428;86;21062;-88
2022/01/17 07:03:37;;;;;;;17.20;7.20;;;;;;;7.49;97.03;100538.37;1652471;86;21565;-87
2022/01/17 07:06:04;;;;;;;14.33;6.60;;;;;;;8.80;92.48;100536.69;1656140;86;21503;-88
2022/01/17 07:08:30;;;;;;;16.73;7.37;;;;;;;9.57;78.43;100533.50;1655932;86;21071;-87
2022/01/17 07:10:56;;;;;;;17.40;7.10;;;;;;;9.85;69.47;100562.53;1656310;86;21414;-86
2022/01/17 07:13:24;;;;;;;17.82;7.55;;;;;;;10.75;67.57;100603.11;1656649;86;20898;-87
2022/01/17 07:15:51;;;;;;;15.00;7.03;;;;;;;11.79;64.03;100613.48;1655091;86;21133;-87
2022/01/17 07:18:17;;;;;;;16.57;7.45;;;;;;;12.47;59.01;100606.52;1655997;86;21380;-87
2022/01/17 07:20:43;;;;;;;18.95;7.97;;;;;;;13.21;56.71;100586.58;1655616;86;21660;-89
2022/01/17 07:23:09;;;;;;;15.78;7.75;;;;;;;13.90;51.34;100533.41;1656119;86;20998;-88
2022/01/17 07:25:38;;;;;;;16.17;7.42;;;;;;;14.27;51.52;100514.64;1659913;86;21041;-87
2022/01/17 07:28:03;;;;;;;18.20;7.33;;;;;;;14.68;48.10;100505.30;1682793;83;21048;-87
2022/01/17 07:30:32;;;;;;;15.13;7.53;;;;;;;15.04;47.95;100498.87;1717796;83;21238;-87
2022/01/17 07:33:03;;;;;;;16.65;7.97;;;;;;;15.51;47.74;100517.48;1720223;83;21054;-88
2022/01/17 07:35:29;;;;;;;15.65;8.13;;;;;;;15.78;47.25;100530.95;1667734;86;21075;-87
2022/01/17 07:37:55;;;;;;;15.88;7.50;;;;;;;15.86;40.90;100531.66;1735637;81;21132;-86
2022/01/17 07:40:22;;;;;;;17.25;8.00;;;;;;;16.03;42.66;100547.39;1730183;82;21688;-89
2022/01/17 07:42:48;;;;;;;17.62;8.23;;;;;;;16.38;41.36;100543.80;1753989;81;21563;-91
2022/01/17 07:45:17;;;;;;;16.40;8.30;;;;;;;16.65;41.57;100538.94;1750338;81;20984;-90
2022/01/17 07:50:22;;;;;;;16.57;7.80;;;;;;;17.66;39.09;100497.83;1750053;81;21071;-88
2022/01/17 07:52:50;;;;;;;19.25;8.63;;;;;;;17.14;39.31;100449.73;1750163;81;21087;-88
2022/01/17 07:55:18;;;;;;;17.62;8.53;;;;;;;17.53;38.98;100447.47;1750284;81;21941;-89
2022/01/17 07:57:44;;;;;;;18.52;8.40;;;;;;;17.99;38.42;100432.15;1746030;81;21126;-88
2022/01/17 08:00:15;;;;;;;20.65;9.58;;;;;;;18.20;36.66;100422.85;1750430;81;21076;-89
2022/01/17 08:02:41;;;;;;;21.20;9.03;;;;;;;18.11;36.68;100429.63;1750008;81;21079;-89
2022/01/17 08:05:10;;;;;;;18.95;9.08;;;;;;;18.12;36.71;100384.89;1750167;82;21024;-88
2022/01/17 08:07:36;;;;;;;20.15;8.73;;;;;;;18.36;36.88;100382.32;1749888;81;21087;-87
2022/01/17 08:10:03;;;;;;;17.67;8.13;;;;;;;18.67;36.09;100408.70;1750230;81;21412;-89
2022/01/17 08:12:29;;;;;;;16.15;8.35;;;;;;;18.55;34.66;100417.51;1750465;81;21035;-90
2022/01/17 08:14:58;;;;;;;18.02;8.28;;;;;;;17.99;35.76;100406.25;1742531;81;21722;-91
2022/01/17 08:17:22;;;;;;;15.58;8.60;;;;;;;17.88;35.80;100396.72;1738339;81;21035;-91
2022/01/17 08:19:48;;;;;;;17.50;8.60;;;;;;;18.20;36.17;100398.87;1737575;82;21171;-93
2022/01/17 08:22:14;;;;;;;17.87;8.53;;;;;;;17.49;33.82;100371.00;1736270;82;20946;-91
2022/01/17 08:24:41;;;;;;;21.55;8.38;;;;;;;16.50;36.59;100376.28;1711427;82;21107;-93
2022/01/17 08:27:07;;;;;;;19.30;8.85;;;;;;;16.82;36.69;100361.47;1736284;82;21141;-93
2022/01/17 08:29:35;;;;;;;23.27;8.78;;;;;;;16.61;36.47;100355.64;1735621;82;21069;-91
2022/01/17 08:32:05;;;;;;;17.80;8.78;;;;;;;16.63;36.37;100354.23;1727813;82;21086;-93
2022/01/17 08:34:29;;;;;;;22.22;8.98;;;;;;;16.22;36.44;100347.50;1724875;83;21109;-91
2022/01/17 08:36:55;;;;;;;17.98;7.95;;;;;;;15.20;37.20;100345.52;1725590;83;21637;-91
2022/01/17 08:39:22;;;;;;;21.33;9.43;;;;;;;14.03;37.78;100344.42;1787383;78;21027;-93
2022/01/17 08:41:48;;;;;;;17.27;8.00;;;;;;;12.94;38.74;100332.98;1766745;78;21006;-91
2022/01/17 08:44:16;;;;;;;19.23;8.65;;;;;;;11.89;40.17;100318.42;1753385;79;21038;-92
2022/01/17 08:46:42;;;;;;;18.80;8.15;;;;;;;11.03;41.81;100317.41;1786289;79;21368;-89
2022/01/17 08:49:09;;;;;;;22.80;8.63;;;;;;;10.37;42.97;100318.94;1769391;80;21515;-88
2022/01/17 08:51:35;;;;;;;23.25;8.40;;;;;;;9.72;43.86;100304.11;1760021;79;21049;-88
2022/01/17 08:54:01;;;;;;;24.12;7.87;;;;;;;8.94;44.97;100306.52;1762241;80;21553;-88
2022/01/17 08:56:29;;;;;;;22.37;7.87;;;;;;;8.18;46.50;100306.02;1732522;79;21144;-89
2022/01/17 08:58:56;;;;;;;22.98;8.53;;;;;;;7.47;48.25;100303.20;1795732;78;21050;-90
2022/01/17 09:01:23;;;;;;;23.65;8.03;;;;;;;6.86;50.17;100299.06;1817391;78;21070;-89
2022/01/17 09:03:50;;;;;;;24.15;7.33;;;;;;;6.35;51.83;100295.45;1815784;79;21492;-89
2022/01/17 09:06:17;;;;;;;22.87;8.25;;;;;;;6.05;55.18;100312.54;1816689;78;21039;-93
2022/01/17 09:08:43;;;;;;;23.18;7.62;;;;;;;5.98;58.49;100303.05;1761500;80;21927;-92
2022/01/17 09:11:10;;;;;;;21.73;8.68;;;;;;;5.88;60.57;100300.42;1757581;81;20963;-91
2022/01/17 09:13:36;;;;;;;22.27;8.65;;;;;;;5.86;62.15;100299.03;1725173;83;21124;-92
2022/01/17 09:16:05;;;;;;;20.68;8.38;;;;;;;5.79;66.24;100299.14;1720644;82;21100;-90
2022/01/17 09:18:31;;;;;;;27.95;9.55;;;;;;;5.85;68.03;100289.36;1732319;81;21135;-91
2022/01/17 09:20:59;;;;;;;25.48;8.43;;;;;;;5.69;68.24;100294.92;1718194;81;21145;-91
2022/01/17 09:23:30;;;;;;;22.95;8.90;;;;;;;5.53;72.13;100286.27;1755512;81;20975;-93
2022/01/17 09:25:56;;;;;;;35.17;9.20;;;;;;;5.42;72.75;100280.72;1748935;81;21139;-90
2022/01/17 09:28:24;;;;;;;24.75;9.18;;;;;;;5.42;75.62;100278.57;1739084;81;21029;-89
2022/01/17 09:30:54;;;;;;;21.80;8.40;;;;;;;5.30;79.10;100262.55;1663968;85;21176;-91
2022/01/17 09:33:22;;;;;;;22.90;8.60;;;;;;;5.20;81.04;100240.41;1673518;84;21395;-91
2022/01/17 09:35:49;;;;;;;25.32;9.50;;;;;;;5.19;82.60;100236.12;1664656;85;20990;-90
2022/01/17 09:38:15;;;;;;;25.08;9.13;;;;;;;5.20;83.50;100216.89;1665328;84;21146;-91
2022/01/17 09:40:42;;;;;;;28.80;8.80;;;;;;;5.33;86.14;100218.00;1680771;83;21095;-90
2022/01/17 09:43:08;;;;;;;25.20;8.30;;;;;;;5.55;83.08;100191.45;1666200;83;21110;-88
2022/01/17 09:45:34;;;;;;;22.52;8.28;;;;;;;5.57;79.87;100197.38;1689644;83;21736;-92
2022/01/17 09:48:06;;;;;;;19.57;7.40;;;;;;;5.59;80.26;100189.95;1690271;83;21777;-89
2022/01/17 09:50:46;;;;;;;18.95;8.13;;;;;;;5.63;79.01;100178.25;1690086;83;21118;-91
2022/01/17 09:53:03;;;;;;;25.60;6.90;;;;;;;5.61;78.29;100177.66;1677084;83;21087;-89
2022/01/17 09:55:31;;;;;;;21.62;7.83;;;;;;;5.59;78.92;100163.22;1690393;83;21602;-89
2022/01/17 09:58:07;;;;;;;21.33;7.42;;;;;;;5.59;79.06;100156.53;1683209;84;21101;-91
2022/01/17 10:00:39;;;;;;;23.25;8.00;;;;;;;5.56;77.64;100161.52;1606425;88;21644;-89
2022/01/17 10:03:16;;;;;;;23.95;7.25;;;;;;;5.46;79.28;100166.15;1549004;92;21888;-91
2022/01/17 10:05:42;;;;;;;23.57;7.67;;;;;;;5.48;80.48;100161.39;1549027;92;21093;-90
2022/01/17 10:08:13;;;;;;;23.18;6.80;;;;;;;5.50;80.50;100150.45;1549110;92;21131;-88
2022/01/17 10:10:58;;;;;;;16.87;6.00;;;;;;;5.39;79.74;100140.91;1548854;92;22022;-94
2022/01/17 10:13:37;;;;;;;21.90;7.33;;;;;;;5.39;78.52;100154.27;1547206;92;21079;-92
2022/01/17 10:16:11;;;;;;;16.65;6.22;;;;;;;5.24;78.22;100146.75;1548728;92;21202;-89
2022/01/17 10:18:51;;;;;;;19.62;6.75;;;;;;;5.13;80.42;100141.43;1548695;92;21190;-88
2022/01/17 10:21:49;;;;;;;20.00;6.78;;;;;;;5.09;80.37;100148.27;1548575;92;21084;-90
2022/01/17 10:24:39;;;;;;;19.25;6.83;;;;;;;4.94;81.65;100142.91;1553613;91;21140;-90
2022/01/17 10:35:16;;;;;;;21.65;6.45;;;;;;;4.55;86.88;100087.84;1636971;87;21109;-89
2022/01/17 10:38:02;;;;;;;18.77;7.08;;;;;;;4.51;90.56;100084.55;1607674;87;22239;-88
2022/01/17 10:40:34;;;;;;;24.35;6.17;;;;;;;4.52;93.86;100079.50;1597040;87;21157;-90
2022/01/17 10:43:02;;;;;;;20.57;6.20;;;;;;;4.59;92.28;100076.70;1627662;86;21109;-91
2022/01/17 10:45:33;;;;;;;15.28;5.92;;;;;;;4.57;89.64;100067.61;1634979;87;21113;-90
2022/01/17 10:48:01;;;;;;;16.27;6.65;;;;;;;4.48;91.85;100045.00;1637123;87;21601;-89
2022/01/17 10:50:33;;;;;;;18.87;6.17;;;;;;;4.45;91.59;100038.27;1641210;87;21062;-89
2022/01/17 10:53:04;;;;;;;21.50;6.40;;;;;;;4.44;89.91;100031.33;1640157;87;21653;-91
2022/01/17 10:55:34;;;;;;;18.57;6.97;;;;;;;4.43;90.99;100018.20;1613373;87;21061;-90
2022/01/17 10:58:09;;;;;;;17.85;6.47;;;;;;;4.43;90.38;100002.20;1709810;82;21302;-90
2022/01/17 11:00:43;;;;;;;22.50;6.22;;;;;;;4.40;89.91;99987.47;1706569;83;21046;-90
2022/01/17 11:03:14;;;;;;;18.92;6.08;;;;;;;4.38;89.21;99975.41;1698084;83;22092;-90
2022/01/17 11:05:43;;;;;;;20.55;6.03;;;;;;;4.38;91.57;99980.21;1666512;84;21038;-90
2022/01/17 11:08:09;;;;;;;17.95;6.17;;;;;;;4.35;92.90;99972.67;1690167;84;21466;-91
2022/01/17 11:10:42;;;;;;;16.65;5.45;;;;;;;4.35;93.09;99967.34;1690249;84;21071;-88
2022/01/17 11:13:14;;;;;;;;;;;;;;;4.33;93.09;99963.59;1657554;86;22171;-89
2022/01/17 11:15:43;;;;;;;19.30;5.45;;;;;;;4.30;94.96;99966.73;1654674;86;21193;-89
2022/01/17 11:18:20;;;;;;;19.80;6.65;;;;;;;4.31;94.71;99967.53;1632506;86;21075;-88
2022/01/17 11:20:44;;;;;;;15.05;5.60;;;;;;;4.28;96.35;99961.34;1651348;86;21098;-89
2022/01/17 11:23:11;;;;;;;16.42;5.80;;;;;;;4.28;95.98;99962.67;1655193;86;21035;-90
2022/01/17 11:25:44;;;;;;;22.67;6.65;;;;;;;4.24;98.77;99957.00;1654661;86;21220;-88
2022/01/17 11:28:11;;;;;;;22.25;6.72;;;;;;;4.25;100.00;99947.95;1654667;86;21974;-90
2022/01/17 11:30:42;;;;;;;21.25;6.70;;;;;;;4.27;100.00;99943.20;1653986;86;21092;-86
2022/01/17 11:33:09;;;;;;;21.50;6.83;;;;;;;4.29;100.00;99926.94;1646982;85;21121;-88
2022/01/17 11:35:42;;;;;;;20.23;6.80;;;;;;;4.27;100.00;99924.53;1676796;84;21563;-88
2022/01/17 11:38:16;;;;;;;17.65;6.97;;;;;;;4.30;100.00;99917.92;1691137;83;26771;-87
2022/01/17 11:40:43;;;;;;;16.90;5.97;;;;;;;4.26;100.00;99902.88;1586821;90;21206;-86
2022/01/17 11:43:23;;;;;;;23.55;7.05;;;;;;;4.28;100.00;99896.80;1581423;90;21443;-86
2022/01/17 11:45:53;;;;;;;16.20;6.10;;;;;;;4.28;100.00;99896.80;1581310;90;21145;-89
2022/01/17 11:48:27;;;;;;;19.02;6.50;;;;;;;4.30;100.00;99893.91;1562999;91;21077;-88